Haltwhistle, United Kingdom
Current Conditions -  °F | °C
As of 9:50 AM on Thursday 27 Nov 2014 (Local Time) from EGOM Reporting Station
Drizzle Drizzle  
Wind Chill: 37°   Ceiling: Unl
Heat Index: 43°   Visibility: 0.31mi
Dew Point: 43°   Wind: 9mph
Humidity: 100%   Direction: 50°NE
Pressure: 29.59"   Gusts: NA
Location:  54.97°N, 2.46°W
Report Text: EGOM 270950Z 05008KT 0500 DZ FG VV/// 06/06 Q1002 RED
Loading
Personal Weather Stations






























Interactive Weather Map New forecast layout! Learn more

10-Day Weather Forecast

Advertisements
Track Severe Weather on mobile